sensor_id;sensor_type;location;lat;lon;timestamp;P1;durP1;ratioP1;P2;durP2;ratioP2
52450;SDS011;38366;53.176;6.540;2023-03-13T00:01:22;20.60;;;3.80;;
52450;SDS011;38366;53.176;6.540;2023-03-13T00:04:05;19.17;;;3.92;;
52450;SDS011;38366;53.176;6.540;2023-03-13T00:06:32;14.82;;;3.63;;
52450;SDS011;38366;53.176;6.540;2023-03-13T00:09:00;15.52;;;3.53;;
52450;SDS011;38366;53.176;6.540;2023-03-13T00:11:26;14.23;;;3.53;;
52450;SDS011;38366;53.176;6.540;2023-03-13T00:13:53;13.75;;;3.55;;
52450;SDS011;38366;53.176;6.540;2023-03-13T00:16:20;24.60;;;4.32;;
52450;SDS011;38366;53.176;6.540;2023-03-13T00:18:46;17.85;;;3.67;;
52450;SDS011;38366;53.176;6.540;2023-03-13T00:21:14;17.83;;;3.53;;
52450;SDS011;38366;53.176;6.540;2023-03-13T00:23:41;18.33;;;3.70;;
52450;SDS011;38366;53.176;6.540;2023-03-13T00:26:11;20.35;;;3.97;;
52450;SDS011;38366;53.176;6.540;2023-03-13T00:28:39;22.80;;;3.72;;
52450;SDS011;38366;53.176;6.540;2023-03-13T00:31:07;11.57;;;2.67;;
52450;SDS011;38366;53.176;6.540;2023-03-13T00:33:35;15.70;;;3.33;;
52450;SDS011;38366;53.176;6.540;2023-03-13T00:36:03;20.23;;;4.28;;
52450;SDS011;38366;53.176;6.540;2023-03-13T00:38:30;22.27;;;5.03;;
52450;SDS011;38366;53.176;6.540;2023-03-13T00:41:01;14.77;;;3.17;;
52450;SDS011;38366;53.176;6.540;2023-03-13T00:43:28;21.65;;;3.55;;
52450;SDS011;38366;53.176;6.540;2023-03-13T00:45:54;23.45;;;3.78;;
52450;SDS011;38366;53.176;6.540;2023-03-13T00:48:20;24.42;;;4.30;;
52450;SDS011;38366;53.176;6.540;2023-03-13T00:50:46;25.90;;;5.03;;
52450;SDS011;38366;53.176;6.540;2023-03-13T00:53:12;15.05;;;3.17;;
52450;SDS011;38366;53.176;6.540;2023-03-13T00:55:38;20.85;;;5.05;;
52450;SDS011;38366;53.176;6.540;2023-03-13T00:58:03;17.30;;;3.50;;
52450;SDS011;38366;53.176;6.540;2023-03-13T01:00:29;24.97;;;3.87;;
52450;SDS011;38366;53.176;6.540;2023-03-13T01:02:55;26.20;;;4.30;;
52450;SDS011;38366;53.176;6.540;2023-03-13T01:05:20;24.85;;;5.10;;
52450;SDS011;38366;53.176;6.540;2023-03-13T01:07:46;20.40;;;3.95;;
52450;SDS011;38366;53.176;6.540;2023-03-13T01:10:12;19.98;;;3.83;;
52450;SDS011;38366;53.176;6.540;2023-03-13T01:12:37;23.27;;;4.50;;
52450;SDS011;38366;53.176;6.540;2023-03-13T01:15:03;17.77;;;3.78;;
52450;SDS011;38366;53.176;6.540;2023-03-13T01:17:29;23.17;;;3.60;;
52450;SDS011;38366;53.176;6.540;2023-03-13T01:19:55;12.23;;;3.27;;
52450;SDS011;38366;53.176;6.540;2023-03-13T01:22:21;28.33;;;3.97;;
52450;SDS011;38366;53.176;6.540;2023-03-13T01:24:47;22.90;;;4.63;;
52450;SDS011;38366;53.176;6.540;2023-03-13T01:27:16;12.63;;;3.45;;
52450;SDS011;38366;53.176;6.540;2023-03-13T01:29:43;24.65;;;4.72;;
52450;SDS011;38366;53.176;6.540;2023-03-13T01:32:08;19.00;;;4.00;;
52450;SDS011;38366;53.176;6.540;2023-03-13T01:34:34;23.42;;;5.03;;
52450;SDS011;38366;53.176;6.540;2023-03-13T01:37:00;27.20;;;3.83;;
52450;SDS011;38366;53.176;6.540;2023-03-13T01:39:25;17.10;;;3.53;;
52450;SDS011;38366;53.176;6.540;2023-03-13T01:41:51;16.48;;;3.53;;
52450;SDS011;38366;53.176;6.540;2023-03-13T01:44:19;12.88;;;3.30;;
52450;SDS011;38366;53.176;6.540;2023-03-13T01:46:47;16.58;;;4.25;;
52450;SDS011;38366;53.176;6.540;2023-03-13T01:49:14;22.30;;;3.53;;
52450;SDS011;38366;53.176;6.540;2023-03-13T01:51:54;16.90;;;3.03;;
52450;SDS011;38366;53.176;6.540;2023-03-13T01:54:25;17.88;;;3.88;;
52450;SDS011;38366;53.176;6.540;2023-03-13T01:59:51;17.88;;;4.20;;
52450;SDS011;38366;53.176;6.540;2023-03-13T02:02:23;14.70;;;4.35;;
52450;SDS011;38366;53.176;6.540;2023-03-13T02:04:51;20.60;;;3.85;;
52450;SDS011;38366;53.176;6.540;2023-03-13T02:07:22;22.65;;;4.07;;
52450;SDS011;38366;53.176;6.540;2023-03-13T02:09:53;21.40;;;3.53;;
52450;SDS011;38366;53.176;6.540;2023-03-13T02:12:22;22.52;;;4.03;;
52450;SDS011;38366;53.176;6.540;2023-03-13T02:14:55;13.70;;;3.95;;
52450;SDS011;38366;53.176;6.540;2023-03-13T02:17:24;23.77;;;4.32;;
52450;SDS011;38366;53.176;6.540;2023-03-13T02:27:54;17.50;;;4.20;;
52450;SDS011;38366;53.176;6.540;2023-03-13T02:30:25;18.90;;;3.55;;
52450;SDS011;38366;53.176;6.540;2023-03-13T02:32:51;16.58;;;4.50;;
52450;SDS011;38366;53.176;6.540;2023-03-13T02:35:18;19.30;;;3.65;;
52450;SDS011;38366;53.176;6.540;2023-03-13T02:37:50;17.73;;;4.00;;
52450;SDS011;38366;53.176;6.540;2023-03-13T02:40:21;13.18;;;3.88;;
52450;SDS011;38366;53.176;6.540;2023-03-13T02:42:50;9.50;;;3.58;;
52450;SDS011;38366;53.176;6.540;2023-03-13T02:45:17;16.13;;;3.55;;
52450;SDS011;38366;53.176;6.540;2023-03-13T02:47:43;16.48;;;3.60;;
52450;SDS011;38366;53.176;6.540;2023-03-13T02:50:09;16.17;;;4.07;;
52450;SDS011;38366;53.176;6.540;2023-03-13T02:52:56;12.27;;;3.47;;
52450;SDS011;38366;53.176;6.540;2023-03-13T02:55:26;11.93;;;2.90;;
52450;SDS011;38366;53.176;6.540;2023-03-13T02:57:55;15.32;;;3.40;;
52450;SDS011;38366;53.176;6.540;2023-03-13T03:00:20;7.57;;;2.63;;
52450;SDS011;38366;53.176;6.540;2023-03-13T03:02:50;13.02;;;3.33;;
52450;SDS011;38366;53.176;6.540;2023-03-13T03:05:18;8.75;;;2.38;;
52450;SDS011;38366;53.176;6.540;2023-03-13T03:07:44;9.50;;;3.17;;
52450;SDS011;38366;53.176;6.540;2023-03-13T03:10:10;15.07;;;3.00;;
52450;SDS011;38366;53.176;6.540;2023-03-13T03:12:36;8.00;;;2.42;;
52450;SDS011;38366;53.176;6.540;2023-03-13T03:15:02;6.90;;;3.17;;
52450;SDS011;38366;53.176;6.540;2023-03-13T03:17:31;8.55;;;2.58;;
52450;SDS011;38366;53.176;6.540;2023-03-13T03:19:56;5.00;;;2.60;;
52450;SDS011;38366;53.176;6.540;2023-03-13T03:22:22;5.77;;;2.43;;
52450;SDS011;38366;53.176;6.540;2023-03-13T03:24:48;7.87;;;2.77;;
52450;SDS011;38366;53.176;6.540;2023-03-13T03:27:13;6.37;;;2.87;;
52450;SDS011;38366;53.176;6.540;2023-03-13T03:29:39;7.25;;;2.83;;
52450;SDS011;38366;53.176;6.540;2023-03-13T03:32:05;5.80;;;2.07;;
52450;SDS011;38366;53.176;6.540;2023-03-13T03:34:31;8.45;;;2.65;;
52450;SDS011;38366;53.176;6.540;2023-03-13T03:36:56;6.57;;;2.25;;
52450;SDS011;38366;53.176;6.540;2023-03-13T03:39:22;6.07;;;2.38;;
52450;SDS011;38366;53.176;6.540;2023-03-13T03:41:48;7.68;;;3.28;;
52450;SDS011;38366;53.176;6.540;2023-03-13T03:44:13;8.90;;;3.17;;
52450;SDS011;38366;53.176;6.540;2023-03-13T03:46:39;4.35;;;2.53;;
52450;SDS011;38366;53.176;6.540;2023-03-13T03:49:04;5.80;;;2.13;;
52450;SDS011;38366;53.176;6.540;2023-03-13T03:51:30;5.80;;;1.90;;
52450;SDS011;38366;53.176;6.540;2023-03-13T03:53:56;4.53;;;2.03;;
52450;SDS011;38366;53.176;6.540;2023-03-13T03:56:22;5.22;;;2.25;;
52450;SDS011;38366;53.176;6.540;2023-03-13T03:58:47;4.07;;;1.98;;
52450;SDS011;38366;53.176;6.540;2023-03-13T04:01:13;5.05;;;1.60;;
52450;SDS011;38366;53.176;6.540;2023-03-13T04:03:39;4.85;;;1.98;;
52450;SDS011;38366;53.176;6.540;2023-03-13T04:06:05;3.88;;;2.05;;
52450;SDS011;38366;53.176;6.540;2023-03-13T04:08:31;3.38;;;1.65;;
52450;SDS011;38366;53.176;6.540;2023-03-13T04:10:58;4.72;;;1.77;;
52450;SDS011;38366;53.176;6.540;2023-03-13T04:13:24;2.92;;;1.38;;
52450;SDS011;38366;53.176;6.540;2023-03-13T04:15:50;5.80;;;2.20;;
52450;SDS011;38366;53.176;6.540;2023-03-13T04:18:16;3.10;;;1.50;;
52450;SDS011;38366;53.176;6.540;2023-03-13T04:20:41;6.03;;;1.98;;
52450;SDS011;38366;53.176;6.540;2023-03-13T04:23:07;5.65;;;1.80;;
52450;SDS011;38366;53.176;6.540;2023-03-13T04:25:33;3.97;;;1.95;;
52450;SDS011;38366;53.176;6.540;2023-03-13T04:27:58;5.13;;;2.67;;
52450;SDS011;38366;53.176;6.540;2023-03-13T04:30:24;4.55;;;2.58;;
52450;SDS011;38366;53.176;6.540;2023-03-13T04:32:50;7.13;;;3.40;;
52450;SDS011;38366;53.176;6.540;2023-03-13T04:35:15;6.07;;;3.75;;
52450;SDS011;38366;53.176;6.540;2023-03-13T04:37:41;6.65;;;3.58;;
52450;SDS011;38366;53.176;6.540;2023-03-13T04:40:07;6.95;;;3.40;;
52450;SDS011;38366;53.176;6.540;2023-03-13T04:42:33;10.45;;;3.70;;
52450;SDS011;38366;53.176;6.540;2023-03-13T04:44:59;8.55;;;3.85;;
52450;SDS011;38366;53.176;6.540;2023-03-13T04:47:25;8.23;;;4.35;;
52450;SDS011;38366;53.176;6.540;2023-03-13T04:49:50;8.77;;;4.70;;
52450;SDS011;38366;53.176;6.540;2023-03-13T04:52:16;8.93;;;4.40;;
52450;SDS011;38366;53.176;6.540;2023-03-13T04:54:42;9.88;;;4.65;;
52450;SDS011;38366;53.176;6.540;2023-03-13T04:57:07;9.13;;;5.13;;
52450;SDS011;38366;53.176;6.540;2023-03-13T04:59:33;9.98;;;4.60;;
52450;SDS011;38366;53.176;6.540;2023-03-13T05:01:59;9.50;;;3.85;;
52450;SDS011;38366;53.176;6.540;2023-03-13T05:04:24;7.55;;;4.35;;
52450;SDS011;38366;53.176;6.540;2023-03-13T05:06:50;8.85;;;4.50;;
52450;SDS011;38366;53.176;6.540;2023-03-13T05:09:16;7.07;;;4.07;;
52450;SDS011;38366;53.176;6.540;2023-03-13T05:11:41;10.57;;;4.85;;
52450;SDS011;38366;53.176;6.540;2023-03-13T05:14:07;9.73;;;4.60;;
52450;SDS011;38366;53.176;6.540;2023-03-13T05:16:35;10.75;;;4.80;;
52450;SDS011;38366;53.176;6.540;2023-03-13T05:19:01;12.80;;;5.32;;
52450;SDS011;38366;53.176;6.540;2023-03-13T05:21:27;9.05;;;5.00;;
52450;SDS011;38366;53.176;6.540;2023-03-13T05:23:53;10.33;;;4.97;;
52450;SDS011;38366;53.176;6.540;2023-03-13T05:26:18;9.73;;;4.65;;
52450;SDS011;38366;53.176;6.540;2023-03-13T05:28:44;12.13;;;5.03;;
52450;SDS011;38366;53.176;6.540;2023-03-13T05:31:10;9.90;;;4.43;;
52450;SDS011;38366;53.176;6.540;2023-03-13T05:33:35;6.53;;;3.85;;
52450;SDS011;38366;53.176;6.540;2023-03-13T05:36:01;6.47;;;2.97;;
52450;SDS011;38366;53.176;6.540;2023-03-13T05:38:27;8.38;;;3.33;;
52450;SDS011;38366;53.176;6.540;2023-03-13T05:40:52;7.30;;;3.50;;
52450;SDS011;38366;53.176;6.540;2023-03-13T05:43:18;9.67;;;3.90;;
52450;SDS011;38366;53.176;6.540;2023-03-13T05:45:44;12.63;;;4.22;;
52450;SDS011;38366;53.176;6.540;2023-03-13T05:48:09;8.68;;;3.90;;
52450;SDS011;38366;53.176;6.540;2023-03-13T05:50:35;9.77;;;3.53;;
52450;SDS011;38366;53.176;6.540;2023-03-13T05:53:00;11.10;;;3.67;;
52450;SDS011;38366;53.176;6.540;2023-03-13T05:55:26;9.35;;;3.10;;
52450;SDS011;38366;53.176;6.540;2023-03-13T05:57:52;9.20;;;3.07;;
52450;SDS011;38366;53.176;6.540;2023-03-13T06:00:17;10.13;;;3.53;;
52450;SDS011;38366;53.176;6.540;2023-03-13T06:02:44;9.25;;;3.47;;
52450;SDS011;38366;53.176;6.540;2023-03-13T06:05:09;8.38;;;3.38;;
52450;SDS011;38366;53.176;6.540;2023-03-13T06:07:35;12.05;;;3.20;;
52450;SDS011;38366;53.176;6.540;2023-03-13T06:10:02;8.45;;;3.13;;
52450;SDS011;38366;53.176;6.540;2023-03-13T06:12:28;11.90;;;3.10;;
52450;SDS011;38366;53.176;6.540;2023-03-13T06:14:54;7.65;;;2.63;;
52450;SDS011;38366;53.176;6.540;2023-03-13T06:17:19;12.83;;;3.67;;
52450;SDS011;38366;53.176;6.540;2023-03-13T06:19:45;6.70;;;3.25;;
52450;SDS011;38366;53.176;6.540;2023-03-13T06:22:11;10.43;;;3.67;;
52450;SDS011;38366;53.176;6.540;2023-03-13T06:24:37;8.70;;;3.25;;
52450;SDS011;38366;53.176;6.540;2023-03-13T06:27:03;9.90;;;3.75;;
52450;SDS011;38366;53.176;6.540;2023-03-13T06:29:28;8.73;;;4.07;;
52450;SDS011;38366;53.176;6.540;2023-03-13T06:31:54;17.45;;;4.72;;
52450;SDS011;38366;53.176;6.540;2023-03-13T06:34:20;8.85;;;3.90;;
52450;SDS011;38366;53.176;6.540;2023-03-13T06:36:45;12.77;;;4.63;;
52450;SDS011;38366;53.176;6.540;2023-03-13T06:39:11;7.30;;;3.58;;
52450;SDS011;38366;53.176;6.540;2023-03-13T06:41:37;13.40;;;4.45;;
52450;SDS011;38366;53.176;6.540;2023-03-13T06:44:03;9.40;;;3.55;;
52450;SDS011;38366;53.176;6.540;2023-03-13T06:48:56;13.40;;;4.03;;
52450;SDS011;38366;53.176;6.540;2023-03-13T06:51:22;13.43;;;4.00;;
52450;SDS011;38366;53.176;6.540;2023-03-13T06:53:50;13.73;;;4.05;;
52450;SDS011;38366;53.176;6.540;2023-03-13T06:56:16;12.13;;;4.13;;
52450;SDS011;38366;53.176;6.540;2023-03-13T06:58:45;12.45;;;3.45;;
52450;SDS011;38366;53.176;6.540;2023-03-13T07:01:12;11.27;;;4.22;;
52450;SDS011;38366;53.176;6.540;2023-03-13T07:03:39;11.52;;;3.55;;
52450;SDS011;38366;53.176;6.540;2023-03-13T07:06:08;10.43;;;4.00;;
52450;SDS011;38366;53.176;6.540;2023-03-13T07:08:35;11.65;;;3.80;;
52450;SDS011;38366;53.176;6.540;2023-03-13T07:11:02;13.35;;;4.28;;
52450;SDS011;38366;53.176;6.540;2023-03-13T07:13:30;9.20;;;4.05;;
52450;SDS011;38366;53.176;6.540;2023-03-13T07:16:00;9.82;;;3.67;;
52450;SDS011;38366;53.176;6.540;2023-03-13T07:18:28;9.95;;;3.50;;
52450;SDS011;38366;53.176;6.540;2023-03-13T07:20:55;10.70;;;3.40;;
52450;SDS011;38366;53.176;6.540;2023-03-13T07:23:22;9.43;;;3.88;;
52450;SDS011;38366;53.176;6.540;2023-03-13T07:25:53;9.82;;;3.60;;
52450;SDS011;38366;53.176;6.540;2023-03-13T07:28:19;8.77;;;3.80;;
52450;SDS011;38366;53.176;6.540;2023-03-13T07:30:45;8.18;;;3.40;;
52450;SDS011;38366;53.176;6.540;2023-03-13T07:33:11;7.75;;;3.28;;
52450;SDS011;38366;53.176;6.540;2023-03-13T07:35:36;9.53;;;3.37;;
52450;SDS011;38366;53.176;6.540;2023-03-13T07:38:02;12.73;;;4.32;;
52450;SDS011;38366;53.176;6.540;2023-03-13T07:40:28;16.30;;;4.30;;
52450;SDS011;38366;53.176;6.540;2023-03-13T07:42:54;8.90;;;3.50;;
52450;SDS011;38366;53.176;6.540;2023-03-13T07:45:19;12.37;;;3.57;;
52450;SDS011;38366;53.176;6.540;2023-03-13T07:47:45;9.55;;;3.50;;
52450;SDS011;38366;53.176;6.540;2023-03-13T07:50:11;10.43;;;3.17;;
52450;SDS011;38366;53.176;6.540;2023-03-13T07:52:36;10.52;;;2.45;;
52450;SDS011;38366;53.176;6.540;2023-03-13T07:55:02;8.43;;;3.60;;
52450;SDS011;38366;53.176;6.540;2023-03-13T07:57:28;7.03;;;2.85;;
52450;SDS011;38366;53.176;6.540;2023-03-13T07:59:54;7.95;;;2.95;;
52450;SDS011;38366;53.176;6.540;2023-03-13T08:02:20;9.75;;;3.45;;
52450;SDS011;38366;53.176;6.540;2023-03-13T08:04:45;6.82;;;2.40;;
52450;SDS011;38366;53.176;6.540;2023-03-13T08:07:11;8.85;;;3.05;;
52450;SDS011;38366;53.176;6.540;2023-03-13T08:09:37;9.90;;;3.10;;
52450;SDS011;38366;53.176;6.540;2023-03-13T08:12:03;7.85;;;2.38;;
52450;SDS011;38366;53.176;6.540;2023-03-13T08:14:29;8.18;;;2.97;;
52450;SDS011;38366;53.176;6.540;2023-03-13T08:16:54;7.43;;;2.17;;
52450;SDS011;38366;53.176;6.540;2023-03-13T08:19:20;8.25;;;2.50;;
52450;SDS011;38366;53.176;6.540;2023-03-13T08:21:46;9.75;;;2.33;;
52450;SDS011;38366;53.176;6.540;2023-03-13T08:24:11;6.25;;;1.58;;
52450;SDS011;38366;53.176;6.540;2023-03-13T08:26:40;5.57;;;1.83;;
52450;SDS011;38366;53.176;6.540;2023-03-13T08:29:07;5.70;;;2.22;;
52450;SDS011;38366;53.176;6.540;2023-03-13T08:31:41;5.22;;;2.00;;
52450;SDS011;38366;53.176;6.540;2023-03-13T08:34:07;3.33;;;1.70;;
52450;SDS011;38366;53.176;6.540;2023-03-13T08:36:34;8.18;;;2.00;;
52450;SDS011;38366;53.176;6.540;2023-03-13T08:39:02;5.28;;;1.70;;
52450;SDS011;38366;53.176;6.540;2023-03-13T08:41:34;3.38;;;1.75;;
52450;SDS011;38366;53.176;6.540;2023-03-13T08:44:02;3.40;;;1.10;;
52450;SDS011;38366;53.176;6.540;2023-03-13T08:46:29;5.13;;;1.30;;
52450;SDS011;38366;53.176;6.540;2023-03-13T08:48:56;4.53;;;1.02;;
52450;SDS011;38366;53.176;6.540;2023-03-13T08:51:23;5.25;;;0.93;;
52450;SDS011;38366;53.176;6.540;2023-03-13T08:53:50;4.57;;;1.25;;
52450;SDS011;38366;53.176;6.540;2023-03-13T08:56:17;4.90;;;1.10;;
52450;SDS011;38366;53.176;6.540;2023-03-13T08:58:52;2.17;;;0.82;;
52450;SDS011;38366;53.176;6.540;2023-03-13T09:01:19;2.80;;;1.00;;
52450;SDS011;38366;53.176;6.540;2023-03-13T09:03:47;4.65;;;0.90;;
52450;SDS011;38366;53.176;6.540;2023-03-13T09:08:39;2.85;;;0.70;;
52450;SDS011;38366;53.176;6.540;2023-03-13T09:11:07;1.85;;;0.60;;
52450;SDS011;38366;53.176;6.540;2023-03-13T09:13:36;3.45;;;0.70;;
52450;SDS011;38366;53.176;6.540;2023-03-13T09:16:04;4.80;;;0.98;;
52450;SDS011;38366;53.176;6.540;2023-03-13T09:18:32;3.85;;;1.10;;
52450;SDS011;38366;53.176;6.540;2023-03-13T09:23:24;7.28;;;1.40;;
52450;SDS011;38366;53.176;6.540;2023-03-13T09:25:54;5.60;;;1.38;;
52450;SDS011;38366;53.176;6.540;2023-03-13T09:28:21;3.72;;;1.23;;
52450;SDS011;38366;53.176;6.540;2023-03-13T09:30:48;9.20;;;1.40;;
52450;SDS011;38366;53.176;6.540;2023-03-13T09:33:14;4.18;;;1.10;;
52450;SDS011;38366;53.176;6.540;2023-03-13T09:35:41;6.43;;;1.60;;
52450;SDS011;38366;53.176;6.540;2023-03-13T09:38:06;10.02;;;1.85;;
52450;SDS011;38366;53.176;6.540;2023-03-13T09:40:51;7.97;;;1.50;;
52450;SDS011;38366;53.176;6.540;2023-03-13T09:46:14;7.53;;;1.80;;
52450;SDS011;38366;53.176;6.540;2023-03-13T09:48:48;9.10;;;2.08;;
52450;SDS011;38366;53.176;6.540;2023-03-13T09:51:24;6.70;;;1.70;;
52450;SDS011;38366;53.176;6.540;2023-03-13T09:54:23;7.00;;;1.40;;
52450;SDS011;38366;53.176;6.540;2023-03-13T09:56:57;11.30;;;1.95;;
52450;SDS011;38366;53.176;6.540;2023-03-13T10:01:58;5.15;;;1.80;;
52450;SDS011;38366;53.176;6.540;2023-03-13T10:04:37;6.97;;;1.77;;
52450;SDS011;38366;53.176;6.540;2023-03-13T10:07:12;8.38;;;2.03;;
52450;SDS011;38366;53.176;6.540;2023-03-13T10:09:37;5.63;;;1.40;;
52450;SDS011;38366;53.176;6.540;2023-03-13T10:14:42;9.88;;;2.92;;
52450;SDS011;38366;53.176;6.540;2023-03-13T10:19:57;8.77;;;1.67;;
52450;SDS011;38366;53.176;6.540;2023-03-13T10:25:14;8.27;;;1.65;;
52450;SDS011;38366;53.176;6.540;2023-03-13T10:27:48;10.13;;;1.95;;
52450;SDS011;38366;53.176;6.540;2023-03-13T10:30:33;5.88;;;1.55;;
52450;SDS011;38366;53.176;6.540;2023-03-13T10:35:36;8.77;;;1.90;;
52450;SDS011;38366;53.176;6.540;2023-03-13T10:38:14;9.82;;;2.22;;
52450;SDS011;38366;53.176;6.540;2023-03-13T10:40:45;8.38;;;1.77;;
52450;SDS011;38366;53.176;6.540;2023-03-13T10:43:25;12.65;;;2.08;;
52450;SDS011;38366;53.176;6.540;2023-03-13T10:45:52;7.82;;;1.88;;
52450;SDS011;38366;53.176;6.540;2023-03-13T10:48:19;7.53;;;1.88;;
52450;SDS011;38366;53.176;6.540;2023-03-13T10:50:46;10.68;;;2.08;;
52450;SDS011;38366;53.176;6.540;2023-03-13T10:56:02;10.68;;;2.22;;
52450;SDS011;38366;53.176;6.540;2023-03-13T10:58:42;15.50;;;2.40;;
52450;SDS011;38366;53.176;6.540;2023-03-13T11:03:56;6.18;;;1.70;;
52450;SDS011;38366;53.176;6.540;2023-03-13T11:06:33;11.18;;;2.20;;
52450;SDS011;38366;53.176;6.540;2023-03-13T11:11:42;9.88;;;2.28;;
52450;SDS011;38366;53.176;6.540;2023-03-13T11:14:14;11.57;;;1.70;;
52450;SDS011;38366;53.176;6.540;2023-03-13T11:16:47;9.23;;;1.58;;
52450;SDS011;38366;53.176;6.540;2023-03-13T11:19:19;10.13;;;1.85;;
52450;SDS011;38366;53.176;6.540;2023-03-13T11:27:14;7.72;;;1.27;;
52450;SDS011;38366;53.176;6.540;2023-03-13T11:32:53;9.65;;;2.00;;
52450;SDS011;38366;53.176;6.540;2023-03-13T11:38:17;9.40;;;1.38;;
52450;SDS011;38366;53.176;6.540;2023-03-13T11:49:04;4.30;;;1.10;;
52450;SDS011;38366;53.176;6.540;2023-03-13T11:51:48;4.60;;;1.40;;
52450;SDS011;38366;53.176;6.540;2023-03-13T11:54:54;5.55;;;1.30;;
52450;SDS011;38366;53.176;6.540;2023-03-13T11:57:47;6.82;;;1.30;;
52450;SDS011;38366;53.176;6.540;2023-03-13T12:00:24;5.95;;;1.50;;
52450;SDS011;38366;53.176;6.540;2023-03-13T12:03:16;9.30;;;1.52;;
52450;SDS011;38366;53.176;6.540;2023-03-13T12:05:53;7.72;;;1.55;;
52450;SDS011;38366;53.176;6.540;2023-03-13T12:11:26;9.27;;;1.70;;
52450;SDS011;38366;53.176;6.540;2023-03-13T12:14:04;8.73;;;1.80;;
52450;SDS011;38366;53.176;6.540;2023-03-13T12:16:50;8.88;;;1.38;;
52450;SDS011;38366;53.176;6.540;2023-03-13T12:19:22;9.20;;;1.60;;
52450;SDS011;38366;53.176;6.540;2023-03-13T12:22:05;9.45;;;2.05;;
52450;SDS011;38366;53.176;6.540;2023-03-13T12:24:40;9.15;;;1.60;;
52450;SDS011;38366;53.176;6.540;2023-03-13T12:27:17;10.52;;;2.00;;
52450;SDS011;38366;53.176;6.540;2023-03-13T12:33:15;6.18;;;1.67;;
52450;SDS011;38366;53.176;6.540;2023-03-13T12:36:12;9.27;;;1.92;;
52450;SDS011;38366;53.176;6.540;2023-03-13T12:41:26;11.55;;;2.17;;
52450;SDS011;38366;53.176;6.540;2023-03-13T12:44:06;6.55;;;1.80;;
52450;SDS011;38366;53.176;6.540;2023-03-13T13:00:30;9.77;;;2.40;;
52450;SDS011;38366;53.176;6.540;2023-03-13T13:03:01;11.15;;;2.75;;
52450;SDS011;38366;53.176;6.540;2023-03-13T13:08:36;16.13;;;2.35;;
52450;SDS011;38366;53.176;6.540;2023-03-13T13:16:42;17.75;;;2.92;;
52450;SDS011;38366;53.176;6.540;2023-03-13T13:25:46;15.13;;;2.25;;
52450;SDS011;38366;53.176;6.540;2023-03-13T13:27:51;12.50;;;2.42;;
52450;SDS011;38366;53.176;6.540;2023-03-13T13:32:44;9.32;;;2.20;;
52450;SDS011;38366;53.176;6.540;2023-03-13T13:37:39;10.60;;;2.75;;
52450;SDS011;38366;53.176;6.540;2023-03-13T13:42:38;16.38;;;2.50;;
52450;SDS011;38366;53.176;6.540;2023-03-13T13:47:43;12.65;;;2.72;;
52450;SDS011;38366;53.176;6.540;2023-03-13T13:52:47;11.83;;;2.73;;
52450;SDS011;38366;53.176;6.540;2023-03-13T13:58:26;15.32;;;2.70;;
52450;SDS011;38366;53.176;6.540;2023-03-13T14:00:55;15.38;;;2.67;;
52450;SDS011;38366;53.176;6.540;2023-03-13T14:03:29;12.95;;;2.47;;
52450;SDS011;38366;53.176;6.540;2023-03-13T14:06:00;14.50;;;2.58;;
52450;SDS011;38366;53.176;6.540;2023-03-13T14:08:47;12.32;;;3.42;;
52450;SDS011;38366;53.176;6.540;2023-03-13T14:11:32;16.48;;;2.80;;
52450;SDS011;38366;53.176;6.540;2023-03-13T14:14:07;13.70;;;2.75;;
52450;SDS011;38366;53.176;6.540;2023-03-13T14:16:47;13.95;;;2.03;;
52450;SDS011;38366;53.176;6.540;2023-03-13T14:19:23;13.32;;;2.78;;
52450;SDS011;38366;53.176;6.540;2023-03-13T14:21:50;13.88;;;2.67;;
52450;SDS011;38366;53.176;6.540;2023-03-13T14:24:21;13.52;;;2.40;;
52450;SDS011;38366;53.176;6.540;2023-03-13T14:26:47;14.15;;;2.67;;
52450;SDS011;38366;53.176;6.540;2023-03-13T14:29:16;16.08;;;3.42;;
52450;SDS011;38366;53.176;6.540;2023-03-13T14:31:54;15.52;;;3.03;;
52450;SDS011;38366;53.176;6.540;2023-03-13T14:34:22;11.05;;;2.35;;
52450;SDS011;38366;53.176;6.540;2023-03-13T14:36:55;18.25;;;3.03;;
52450;SDS011;38366;53.176;6.540;2023-03-13T14:42:16;12.77;;;2.53;;
52450;SDS011;38366;53.176;6.540;2023-03-13T14:44:43;14.63;;;2.95;;
52450;SDS011;38366;53.176;6.540;2023-03-13T14:47:29;11.10;;;3.03;;
52450;SDS011;38366;53.176;6.540;2023-03-13T14:49:59;14.20;;;2.65;;
52450;SDS011;38366;53.176;6.540;2023-03-13T14:52:29;12.68;;;2.78;;
52450;SDS011;38366;53.176;6.540;2023-03-13T14:54:58;14.40;;;2.65;;
52450;SDS011;38366;53.176;6.540;2023-03-13T14:57:29;13.57;;;2.10;;
52450;SDS011;38366;53.176;6.540;2023-03-13T15:02:40;16.05;;;2.13;;
52450;SDS011;38366;53.176;6.540;2023-03-13T15:05:28;18.77;;;2.90;;
52450;SDS011;38366;53.176;6.540;2023-03-13T15:07:56;20.00;;;3.85;;
52450;SDS011;38366;53.176;6.540;2023-03-13T15:10:35;11.98;;;2.30;;
52450;SDS011;38366;53.176;6.540;2023-03-13T15:15:39;15.75;;;2.75;;
52450;SDS011;38366;53.176;6.540;2023-03-13T15:18:11;15.18;;;2.72;;
52450;SDS011;38366;53.176;6.540;2023-03-13T15:20:49;18.73;;;3.28;;
52450;SDS011;38366;53.176;6.540;2023-03-13T15:23:17;20.27;;;3.40;;
52450;SDS011;38366;53.176;6.540;2023-03-13T15:28:19;15.20;;;2.30;;
52450;SDS011;38366;53.176;6.540;2023-03-13T15:30:47;17.50;;;2.85;;
52450;SDS011;38366;53.176;6.540;2023-03-13T15:33:16;20.30;;;4.47;;
52450;SDS011;38366;53.176;6.540;2023-03-13T15:35:44;23.48;;;3.55;;
52450;SDS011;38366;53.176;6.540;2023-03-13T15:38:18;18.67;;;3.83;;
52450;SDS011;38366;53.176;6.540;2023-03-13T15:40:45;19.00;;;3.60;;
52450;SDS011;38366;53.176;6.540;2023-03-13T15:43:11;17.90;;;3.72;;
52450;SDS011;38366;53.176;6.540;2023-03-13T15:45:38;24.00;;;2.92;;
52450;SDS011;38366;53.176;6.540;2023-03-13T15:48:25;19.13;;;3.78;;
52450;SDS011;38366;53.176;6.540;2023-03-13T15:50:52;13.48;;;2.85;;
52450;SDS011;38366;53.176;6.540;2023-03-13T15:53:32;18.57;;;3.20;;
52450;SDS011;38366;53.176;6.540;2023-03-13T15:56:02;12.40;;;2.53;;
52450;SDS011;38366;53.176;6.540;2023-03-13T15:58:37;16.63;;;2.45;;
52450;SDS011;38366;53.176;6.540;2023-03-13T16:01:02;14.82;;;2.67;;
52450;SDS011;38366;53.176;6.540;2023-03-13T16:03:28;14.50;;;2.72;;
52450;SDS011;38366;53.176;6.540;2023-03-13T16:05:55;13.90;;;3.03;;
52450;SDS011;38366;53.176;6.540;2023-03-13T16:10:47;23.40;;;3.25;;
52450;SDS011;38366;53.176;6.540;2023-03-13T16:13:14;11.85;;;2.53;;
52450;SDS011;38366;53.176;6.540;2023-03-13T16:15:40;16.70;;;3.05;;
52450;SDS011;38366;53.176;6.540;2023-03-13T16:18:06;21.58;;;2.70;;
52450;SDS011;38366;53.176;6.540;2023-03-13T16:20:34;15.57;;;3.15;;
52450;SDS011;38366;53.176;6.540;2023-03-13T16:22:59;13.07;;;3.05;;
52450;SDS011;38366;53.176;6.540;2023-03-13T16:25:28;15.20;;;3.30;;
52450;SDS011;38366;53.176;6.540;2023-03-13T16:27:55;23.30;;;3.22;;
52450;SDS011;38366;53.176;6.540;2023-03-13T16:30:27;17.50;;;3.45;;
52450;SDS011;38366;53.176;6.540;2023-03-13T16:32:54;18.52;;;2.92;;
52450;SDS011;38366;53.176;6.540;2023-03-13T16:35:21;17.08;;;3.47;;
52450;SDS011;38366;53.176;6.540;2023-03-13T16:37:48;16.55;;;3.00;;
52450;SDS011;38366;53.176;6.540;2023-03-13T16:40:19;13.45;;;3.47;;
52450;SDS011;38366;53.176;6.540;2023-03-13T16:42:46;19.33;;;3.10;;
52450;SDS011;38366;53.176;6.540;2023-03-13T16:45:12;16.30;;;2.67;;
52450;SDS011;38366;53.176;6.540;2023-03-13T16:52:47;17.98;;;3.15;;
52450;SDS011;38366;53.176;6.540;2023-03-13T16:55:14;16.20;;;2.97;;
52450;SDS011;38366;53.176;6.540;2023-03-13T16:57:40;18.27;;;2.60;;
52450;SDS011;38366;53.176;6.540;2023-03-13T17:00:24;22.60;;;3.35;;
52450;SDS011;38366;53.176;6.540;2023-03-13T17:02:52;23.08;;;3.58;;
52450;SDS011;38366;53.176;6.540;2023-03-13T17:05:18;22.00;;;3.65;;